sensor_id;sensor_type;location;lat;lon;timestamp;pressure;altitude;pressure_sealevel;temperature;humidity
55757;BME280;41676;44.610;44.078;2023-03-23T00:03:03;100001.97;;;6.99;84.48
55757;BME280;41676;44.610;44.078;2023-03-23T00:08:03;100194.03;;;8.04;84.63
55757;BME280;41676;44.610;44.078;2023-03-23T00:13:04;100265.97;;;8.52;84.95
55757;BME280;41676;44.610;44.078;2023-03-23T00:18:05;100125.03;;;7.71;84.64
55757;BME280;41676;44.610;44.078;2023-03-23T00:23:06;100228.91;;;8.26;84.96
55757;BME280;41676;44.610;44.078;2023-03-23T00:28:07;99981.69;;;6.63;85.11
55757;BME280;41676;44.610;44.078;2023-03-23T00:33:09;100281.38;;;8.30;85.48
55757;BME280;41676;44.610;44.078;2023-03-23T00:38:12;100200.78;;;7.81;85.60
55757;BME280;41676;44.610;44.078;2023-03-23T00:43:14;100119.00;;;7.17;85.46
55757;BME280;41676;44.610;44.078;2023-03-23T00:48:16;100032.31;;;6.59;85.67
55757;BME280;41676;44.610;44.078;2023-03-23T00:53:18;100331.88;;;8.37;85.92
55757;BME280;41676;44.610;44.078;2023-03-23T00:58:19;100123.69;;;7.23;85.65
55757;BME280;41676;44.610;44.078;2023-03-23T01:03:19;100161.31;;;7.61;85.59
55757;BME280;41676;44.610;44.078;2023-03-23T01:08:21;100197.19;;;7.82;85.66
55757;BME280;41676;44.610;44.078;2023-03-23T01:13:22;100312.81;;;8.51;86.00
55757;BME280;41676;44.610;44.078;2023-03-23T01:18:23;100227.47;;;7.87;86.16
55757;BME280;41676;44.610;44.078;2023-03-23T01:23:24;100243.97;;;8.07;86.18
55757;BME280;41676;44.610;44.078;2023-03-23T01:28:25;100154.25;;;7.44;86.04
55757;BME280;41676;44.610;44.078;2023-03-23T01:33:25;100129.66;;;7.25;86.12
55757;BME280;41676;44.610;44.078;2023-03-23T01:38:26;100361.94;;;8.72;85.99
55757;BME280;41676;44.610;44.078;2023-03-23T01:43:27;100223.91;;;7.96;86.11
55757;BME280;41676;44.610;44.078;2023-03-23T01:48:32;100090.41;;;7.13;86.30
55757;BME280;41676;44.610;44.078;2023-03-23T01:53:43;100333.81;;;8.71;86.86
55757;BME280;41676;44.610;44.078;2023-03-23T01:58:45;100312.94;;;8.67;85.98
55757;BME280;41676;44.610;44.078;2023-03-23T02:03:47;100320.72;;;8.69;85.72
55757;BME280;41676;44.610;44.078;2023-03-23T02:08:51;100168.63;;;7.85;85.28
55757;BME280;41676;44.610;44.078;2023-03-23T02:13:53;100187.97;;;8.12;84.91
55757;BME280;41676;44.610;44.078;2023-03-23T02:35:20;100364.13;;;9.36;86.58
55757;BME280;41676;44.610;44.078;2023-03-23T02:40:27;100158.66;;;8.05;85.74
55757;BME280;41676;44.610;44.078;2023-03-23T02:45:31;100373.31;;;9.24;85.72
55757;BME280;41676;44.610;44.078;2023-03-23T02:50:34;100306.19;;;8.81;85.94
55757;BME280;41676;44.610;44.078;2023-03-23T02:55:39;100273.09;;;8.51;86.31
55757;BME280;41676;44.610;44.078;2023-03-23T03:00:43;100174.72;;;7.86;86.21
55757;BME280;41676;44.610;44.078;2023-03-23T03:11:14;100375.63;;;9.19;87.57
55757;BME280;41676;44.610;44.078;2023-03-23T03:16:44;100380.44;;;9.24;87.37
55757;BME280;41676;44.610;44.078;2023-03-23T03:21:47;100334.91;;;8.94;85.86
55757;BME280;41676;44.610;44.078;2023-03-23T03:26:52;100280.63;;;8.64;86.72
55757;BME280;41676;44.610;44.078;2023-03-23T03:31:59;100234.94;;;8.36;86.40
55757;BME280;41676;44.610;44.078;2023-03-23T03:37:02;100394.34;;;9.52;86.82
55757;BME280;41676;44.610;44.078;2023-03-23T03:42:06;100326.97;;;8.94;85.73
55757;BME280;41676;44.610;44.078;2023-03-23T03:47:10;100355.25;;;9.20;85.81
55757;BME280;41676;44.610;44.078;2023-03-23T03:52:11;100411.56;;;9.56;86.04
55757;BME280;41676;44.610;44.078;2023-03-23T03:57:12;100408.59;;;9.59;85.91
55757;BME280;41676;44.610;44.078;2023-03-23T04:02:13;100345.00;;;9.25;86.05
55757;BME280;41676;44.610;44.078;2023-03-23T04:07:16;100308.16;;;9.05;85.53
55757;BME280;41676;44.610;44.078;2023-03-23T04:12:17;100310.34;;;9.18;85.74
55757;BME280;41676;44.610;44.078;2023-03-23T04:17:18;100300.41;;;9.20;85.66
55757;BME280;41676;44.610;44.078;2023-03-23T04:22:20;100325.84;;;9.47;85.48
55757;BME280;41676;44.610;44.078;2023-03-23T04:27:26;100236.63;;;9.13;85.62
55757;BME280;41676;44.610;44.078;2023-03-23T04:32:28;100312.84;;;9.78;84.61
55757;BME280;41676;44.610;44.078;2023-03-23T04:37:30;100421.25;;;10.65;84.14
55757;BME280;41676;44.610;44.078;2023-03-23T04:42:31;100271.38;;;10.02;83.78
55757;BME280;41676;44.610;44.078;2023-03-23T04:47:34;100366.09;;;11.00;83.92
55757;BME280;41676;44.610;44.078;2023-03-23T04:52:40;100314.91;;;10.97;82.77
55757;BME280;41676;44.610;44.078;2023-03-23T04:57:46;100331.38;;;11.40;82.55
55757;BME280;41676;44.610;44.078;2023-03-23T05:02:50;100082.91;;;10.18;81.86
55757;BME280;41676;44.610;44.078;2023-03-23T05:07:51;100362.25;;;12.12;81.91
55757;BME280;41676;44.610;44.078;2023-03-23T05:12:53;100397.78;;;12.65;81.43
55757;BME280;41676;44.610;44.078;2023-03-23T05:17:55;100403.63;;;12.84;80.89
55757;BME280;41676;44.610;44.078;2023-03-23T05:22:56;100324.03;;;12.43;80.11
55757;BME280;41676;44.610;44.078;2023-03-23T05:27:58;100410.56;;;13.08;80.20
55757;BME280;41676;44.610;44.078;2023-03-23T05:32:59;100408.00;;;13.29;79.49
55757;BME280;41676;44.610;44.078;2023-03-23T05:38:00;100365.59;;;13.19;78.80
55757;BME280;41676;44.610;44.078;2023-03-23T05:43:02;100403.84;;;13.56;78.65
55757;BME280;41676;44.610;44.078;2023-03-23T05:48:03;100322.72;;;13.06;78.66
55757;BME280;41676;44.610;44.078;2023-03-23T05:53:03;100421.69;;;13.70;78.28
55757;BME280;41676;44.610;44.078;2023-03-23T05:58:04;100374.59;;;13.33;77.62
55757;BME280;41676;44.610;44.078;2023-03-23T06:03:05;100337.59;;;13.15;77.81
55757;BME280;41676;44.610;44.078;2023-03-23T06:08:06;100374.81;;;13.32;77.71
55757;BME280;41676;44.610;44.078;2023-03-23T06:13:07;100402.31;;;13.47;77.70
55757;BME280;41676;44.610;44.078;2023-03-23T06:18:08;100315.75;;;13.05;77.12
55757;BME280;41676;44.610;44.078;2023-03-23T06:23:09;100335.97;;;13.14;77.25
55757;BME280;41676;44.610;44.078;2023-03-23T06:28:10;100318.56;;;13.03;76.92
55757;BME280;41676;44.610;44.078;2023-03-23T06:33:11;100402.28;;;13.62;76.36
55757;BME280;41676;44.610;44.078;2023-03-23T06:38:12;100340.38;;;13.37;76.21
55757;BME280;41676;44.610;44.078;2023-03-23T06:43:13;100266.91;;;13.05;76.17
55757;BME280;41676;44.610;44.078;2023-03-23T06:48:14;100429.28;;;14.25;75.73
55757;BME280;41676;44.610;44.078;2023-03-23T06:53:15;100326.41;;;13.71;74.86
55757;BME280;41676;44.610;44.078;2023-03-23T06:58:16;100417.53;;;14.41;74.42
55757;BME280;41676;44.610;44.078;2023-03-23T07:03:17;100431.59;;;14.71;73.84
55757;BME280;41676;44.610;44.078;2023-03-23T07:08:18;100399.00;;;14.82;73.36
55757;BME280;41676;44.610;44.078;2023-03-23T07:13:19;100245.41;;;14.07;72.13
55757;BME280;41676;44.610;44.078;2023-03-23T07:18:21;100395.09;;;15.19;71.62
55757;BME280;41676;44.610;44.078;2023-03-23T07:23:22;100403.41;;;15.31;70.93
55757;BME280;41676;44.610;44.078;2023-03-23T07:28:22;100419.78;;;15.49;69.43
55757;BME280;41676;44.610;44.078;2023-03-23T07:33:23;100395.16;;;15.26;68.30
55757;BME280;41676;44.610;44.078;2023-03-23T07:38:24;100404.50;;;15.43;68.83
55757;BME280;41676;44.610;44.078;2023-03-23T07:43:27;100414.91;;;15.60;67.90
55757;BME280;41676;44.610;44.078;2023-03-23T07:48:28;100376.34;;;15.47;67.76
55757;BME280;41676;44.610;44.078;2023-03-23T07:53:29;100348.09;;;15.38;66.42
55757;BME280;41676;44.610;44.078;2023-03-23T07:58:30;100235.41;;;14.72;65.43
55757;BME280;41676;44.610;44.078;2023-03-23T08:03:31;100360.31;;;15.61;64.04
55757;BME280;41676;44.610;44.078;2023-03-23T08:08:32;100347.06;;;16.01;63.24
55757;BME280;41676;44.610;44.078;2023-03-23T08:13:33;100361.75;;;16.44;61.91
55757;BME280;41676;44.610;44.078;2023-03-23T08:18:36;100299.25;;;16.24;60.73
55757;BME280;41676;44.610;44.078;2023-03-23T08:23:38;100369.59;;;16.79;59.82
55757;BME280;41676;44.610;44.078;2023-03-23T08:28:39;100301.13;;;16.43;59.62
55757;BME280;41676;44.610;44.078;2023-03-23T08:33:40;100188.16;;;16.07;58.57
55757;BME280;41676;44.610;44.078;2023-03-23T08:38:41;100233.44;;;16.61;57.36
55757;BME280;41676;44.610;44.078;2023-03-23T08:43:43;100331.59;;;17.54;56.64
55757;BME280;41676;44.610;44.078;2023-03-23T08:48:45;100238.69;;;17.01;56.00
55757;BME280;41676;44.610;44.078;2023-03-23T08:53:47;100153.28;;;16.92;55.83
55757;BME280;41676;44.610;44.078;2023-03-23T08:58:48;100313.09;;;18.09;54.36
55757;BME280;41676;44.610;44.078;2023-03-23T09:03:49;100241.75;;;17.50;54.00
55757;BME280;41676;44.610;44.078;2023-03-23T09:08:51;100275.13;;;17.67;55.00
55757;BME280;41676;44.610;44.078;2023-03-23T09:13:51;100173.81;;;17.11;54.88
55757;BME280;41676;44.610;44.078;2023-03-23T09:18:52;100274.75;;;18.20;54.36
55757;BME280;41676;44.610;44.078;2023-03-23T09:23:53;100291.75;;;18.39;53.84
55757;BME280;41676;44.610;44.078;2023-03-23T09:28:57;100168.03;;;17.77;53.44
55757;BME280;41676;44.610;44.078;2023-03-23T09:33:59;100234.00;;;18.23;53.27
55757;BME280;41676;44.610;44.078;2023-03-23T09:39:01;100109.38;;;17.43;53.16
55757;BME280;41676;44.610;44.078;2023-03-23T09:44:05;100280.72;;;18.47;52.97
55757;BME280;41676;44.610;44.078;2023-03-23T09:49:11;100275.88;;;18.56;51.03
55757;BME280;41676;44.610;44.078;2023-03-23T10:04:49;100271.03;;;18.65;51.48
55757;BME280;41676;44.610;44.078;2023-03-23T10:09:53;100279.38;;;18.38;52.08
55757;BME280;41676;44.610;44.078;2023-03-23T10:15:17;100263.94;;;18.27;52.50
55757;BME280;41676;44.610;44.078;2023-03-23T10:20:23;100269.91;;;18.54;52.84
55757;BME280;41676;44.610;44.078;2023-03-23T10:25:32;100211.69;;;17.98;52.38
55757;BME280;41676;44.610;44.078;2023-03-23T10:30:41;100219.91;;;18.03;52.52
55757;BME280;41676;44.610;44.078;2023-03-23T10:35:57;100259.34;;;18.34;50.76
55757;BME280;41676;44.610;44.078;2023-03-23T10:41:05;100175.88;;;17.79;51.68
55757;BME280;41676;44.610;44.078;2023-03-23T10:51:35;100244.88;;;18.54;51.87
55757;BME280;41676;44.610;44.078;2023-03-23T10:56:42;100187.31;;;18.18;51.49
55757;BME280;41676;44.610;44.078;2023-03-23T11:01:50;100228.97;;;18.52;51.68
55757;BME280;41676;44.610;44.078;2023-03-23T11:06:53;100237.75;;;18.41;52.42
55757;BME280;41676;44.610;44.078;2023-03-23T11:11:55;100235.94;;;18.16;52.19
55757;BME280;41676;44.610;44.078;2023-03-23T11:16:59;100210.47;;;17.94;51.96
55757;BME280;41676;44.610;44.078;2023-03-23T11:27:08;100179.47;;;17.91;52.17
55757;BME280;41676;44.610;44.078;2023-03-23T11:32:12;100194.97;;;17.96;51.88
55757;BME280;41676;44.610;44.078;2023-03-23T11:37:25;100135.41;;;17.67;52.28
55757;BME280;41676;44.610;44.078;2023-03-23T11:47:37;100170.59;;;17.91;51.31
55757;BME280;41676;44.610;44.078;2023-03-23T11:52:43;100191.81;;;17.99;52.13
55757;BME280;41676;44.610;44.078;2023-03-23T11:57:47;100030.91;;;16.91;51.99
55757;BME280;41676;44.610;44.078;2023-03-23T12:15:01;100173.78;;;17.49;52.50
55757;BME280;41676;44.610;44.078;2023-03-23T12:36:18;100186.66;;;17.41;51.76
55757;BME280;41676;44.610;44.078;2023-03-23T12:41:29;100172.03;;;17.37;52.15
55757;BME280;41676;44.610;44.078;2023-03-23T12:52:28;100176.56;;;17.36;52.32
55757;BME280;41676;44.610;44.078;2023-03-23T12:57:39;100161.97;;;17.25;52.91
55757;BME280;41676;44.610;44.078;2023-03-23T13:02:46;100133.41;;;17.06;52.63
55757;BME280;41676;44.610;44.078;2023-03-23T13:08:09;100084.19;;;16.80;53.07
55757;BME280;41676;44.610;44.078;2023-03-23T13:13:16;100083.63;;;16.78;52.71
55757;BME280;41676;44.610;44.078;2023-03-23T13:18:29;100175.31;;;17.39;52.40
55757;BME280;41676;44.610;44.078;2023-03-23T13:23:36;100135.97;;;17.19;52.67
55757;BME280;41676;44.610;44.078;2023-03-23T13:29:22;100177.69;;;17.53;52.93
55757;BME280;41676;44.610;44.078;2023-03-23T13:34:31;100112.00;;;16.93;53.19
55757;BME280;41676;44.610;44.078;2023-03-23T13:40:17;100182.84;;;17.23;53.33
55757;BME280;41676;44.610;44.078;2023-03-23T14:00:45;100182.03;;;17.16;54.06
55757;BME280;41676;44.610;44.078;2023-03-23T14:11:02;100142.19;;;16.81;54.38
55757;BME280;41676;44.610;44.078;2023-03-23T14:16:24;100119.16;;;16.60;54.85
55757;BME280;41676;44.610;44.078;2023-03-23T14:21:37;100034.63;;;16.00;54.93
55757;BME280;41676;44.610;44.078;2023-03-23T14:26:41;100080.91;;;16.27;55.26
55757;BME280;41676;44.610;44.078;2023-03-23T14:31:44;100152.56;;;16.58;55.58
55757;BME280;41676;44.610;44.078;2023-03-23T14:36:45;100110.00;;;16.23;56.16
55757;BME280;41676;44.610;44.078;2023-03-23T14:41:46;100170.94;;;16.61;56.40
55757;BME280;41676;44.610;44.078;2023-03-23T14:46:48;100179.56;;;16.63;56.51
55757;BME280;41676;44.610;44.078;2023-03-23T14:51:51;100172.41;;;16.43;56.95
55757;BME280;41676;44.610;44.078;2023-03-23T14:56:53;100186.84;;;16.49;56.93
55757;BME280;41676;44.610;44.078;2023-03-23T15:01:54;100043.56;;;15.53;57.72
55757;BME280;41676;44.610;44.078;2023-03-23T15:06:59;100150.44;;;16.08;57.92
55757;BME280;41676;44.610;44.078;2023-03-23T15:12:03;100168.56;;;16.13;58.18
55757;BME280;41676;44.610;44.078;2023-03-23T15:17:05;100128.44;;;15.80;58.09
55757;BME280;41676;44.610;44.078;2023-03-23T15:22:28;100207.09;;;16.25;58.36
55757;BME280;41676;44.610;44.078;2023-03-23T15:27:32;100202.56;;;16.19;58.36
55757;BME280;41676;44.610;44.078;2023-03-23T15:32:41;100149.63;;;15.81;58.63
55757;BME280;41676;44.610;44.078;2023-03-23T15:37:45;100193.09;;;16.03;58.72
55757;BME280;41676;44.610;44.078;2023-03-23T15:42:47;100203.41;;;16.00;59.05
55757;BME280;41676;44.610;44.078;2023-03-23T15:47:49;100203.81;;;15.90;59.07
55757;BME280;41676;44.610;44.078;2023-03-23T15:52:50;100197.03;;;15.81;59.49
55757;BME280;41676;44.610;44.078;2023-03-23T15:57:53;100109.63;;;15.20;59.35
55757;BME280;41676;44.610;44.078;2023-03-23T16:03:04;100119.09;;;15.22;59.65
55757;BME280;41676;44.610;44.078;2023-03-23T16:08:10;100231.63;;;15.75;59.82
55757;BME280;41676;44.610;44.078;2023-03-23T16:13:11;100193.47;;;15.53;59.96
55757;BME280;41676;44.610;44.078;2023-03-23T16:18:20;100244.19;;;15.68;60.51
55757;BME280;41676;44.610;44.078;2023-03-23T16:23:21;100215.31;;;15.50;60.33
55757;BME280;41676;44.610;44.078;2023-03-23T16:28:22;100103.75;;;14.70;60.51
55757;BME280;41676;44.610;44.078;2023-03-23T16:33:22;100230.50;;;15.43;60.71
55757;BME280;41676;44.610;44.078;2023-03-23T16:38:23;100195.63;;;15.10;61.08
55757;BME280;41676;44.610;44.078;2023-03-23T16:43:24;100249.22;;;15.37;61.08
55757;BME280;41676;44.610;44.078;2023-03-23T16:48:25;100249.22;;;15.30;61.48
55757;BME280;41676;44.610;44.078;2023-03-23T16:53:26;100252.28;;;15.20;61.77
55757;BME280;41676;44.610;44.078;2023-03-23T16:58:27;100162.50;;;14.56;61.88
55757;BME280;41676;44.610;44.078;2023-03-23T17:03:28;100224.53;;;14.87;62.03
55757;BME280;41676;44.610;44.078;2023-03-23T17:08:29;100130.44;;;14.22;62.30
55757;BME280;41676;44.610;44.078;2023-03-23T17:13:30;100273.59;;;15.00;62.66
55757;BME280;41676;44.610;44.078;2023-03-23T17:18:31;100101.81;;;13.81;62.46
55757;BME280;41676;44.610;44.078;2023-03-23T17:23:31;100177.75;;;14.28;62.33
55757;BME280;41676;44.610;44.078;2023-03-23T17:28:32;100164.97;;;14.23;62.70
55757;BME280;41676;44.610;44.078;2023-03-23T17:33:33;100201.88;;;14.41;62.83
55757;BME280;41676;44.610;44.078;2023-03-23T17:38:34;100185.72;;;14.21;63.35
55757;BME280;41676;44.610;44.078;2023-03-23T17:43:35;100260.41;;;14.57;63.52
55757;BME280;41676;44.610;44.078;2023-03-23T17:48:38;100135.97;;;13.85;63.67
55757;BME280;41676;44.610;44.078;2023-03-23T17:53:39;100178.44;;;14.08;63.83
55757;BME280;41676;44.610;44.078;2023-03-23T17:58:40;100236.59;;;14.41;64.13
55757;BME280;41676;44.610;44.078;2023-03-23T18:03:41;100262.00;;;14.52;64.57
55757;BME280;41676;44.610;44.078;2023-03-23T18:08:41;100265.44;;;14.46;64.73
55757;BME280;41676;44.610;44.078;2023-03-23T18:13:42;100258.38;;;14.38;65.27
55757;BME280;41676;44.610;44.078;2023-03-23T18:18:43;100249.50;;;14.31;65.26
55757;BME280;41676;44.610;44.078;2023-03-23T18:23:45;100202.38;;;13.95;65.42
55757;BME280;41676;44.610;44.078;2023-03-23T18:28:48;100257.66;;;14.23;65.35
55757;BME280;41676;44.610;44.078;2023-03-23T18:33:50;100245.50;;;14.20;65.25
55757;BME280;41676;44.610;44.078;2023-03-23T18:38:55;100248.56;;;14.17;64.99
55757;BME280;41676;44.610;44.078;2023-03-23T18:43:56;100188.69;;;13.77;65.35
55757;BME280;41676;44.610;44.078;2023-03-23T18:48:56;100240.91;;;14.07;65.45
55757;BME280;41676;44.610;44.078;2023-03-23T18:53:57;100234.44;;;13.95;65.81
55757;BME280;41676;44.610;44.078;2023-03-23T18:58:58;100221.16;;;13.80;65.63
55757;BME280;41676;44.610;44.078;2023-03-23T19:03:59;100248.53;;;13.89;65.63
55757;BME280;41676;44.610;44.078;2023-03-23T19:09:00;100154.75;;;13.28;66.46
55757;BME280;41676;44.610;44.078;2023-03-23T19:14:00;100219.69;;;13.56;66.42
55757;BME280;41676;44.610;44.078;2023-03-23T19:19:03;100144.09;;;12.91;66.79
55757;BME280;41676;44.610;44.078;2023-03-23T19:24:06;100190.94;;;13.00;67.32
55757;BME280;41676;44.610;44.078;2023-03-23T19:29:11;100219.19;;;12.95;67.85
55757;BME280;41676;44.610;44.078;2023-03-23T19:34:14;100230.13;;;12.85;68.44
55757;BME280;41676;44.610;44.078;2023-03-23T19:39:15;100232.81;;;12.70;68.69
55757;BME280;41676;44.610;44.078;2023-03-23T19:44:16;100140.31;;;12.05;69.18
55757;BME280;41676;44.610;44.078;2023-03-23T19:49:16;100132.03;;;11.85;69.31
55757;BME280;41676;44.610;44.078;2023-03-23T19:54:17;100224.34;;;12.22;69.79
55757;BME280;41676;44.610;44.078;2023-03-23T19:59:18;100198.59;;;12.00;70.27
55757;BME280;41676;44.610;44.078;2023-03-23T20:04:19;100216.00;;;11.87;70.62
55757;BME280;41676;44.610;44.078;2023-03-23T20:09:20;100130.34;;;11.23;70.63
55757;BME280;41676;44.610;44.078;2023-03-23T20:14:21;100117.88;;;11.01;71.05
55757;BME280;41676;44.610;44.078;2023-03-23T20:19:22;100178.63;;;11.35;71.22
55757;BME280;41676;44.610;44.078;2023-03-23T20:24:23;100206.53;;;11.39;71.82
55757;BME280;41676;44.610;44.078;2023-03-23T20:29:23;100143.03;;;10.90;71.61
55757;BME280;41676;44.610;44.078;2023-03-23T20:34:24;100155.50;;;10.89;72.44
55757;BME280;41676;44.610;44.078;2023-03-23T20:39:31;100210.13;;;11.23;72.37
55757;BME280;41676;44.610;44.078;2023-03-23T20:44:33;100051.06;;;10.26;71.82
55757;BME280;41676;44.610;44.078;2023-03-23T20:49:36;100219.13;;;11.22;72.07
55757;BME280;41676;44.610;44.078;2023-03-23T20:54:37;100134.69;;;10.62;72.50
55757;BME280;41676;44.610;44.078;2023-03-23T20:59:39;100204.31;;;10.88;72.94
55757;BME280;41676;44.610;44.078;2023-03-23T21:04:41;100120.09;;;10.26;73.03
55757;BME280;41676;44.610;44.078;2023-03-23T21:09:41;100197.47;;;10.63;73.52
55757;BME280;41676;44.610;44.078;2023-03-23T21:14:42;100111.63;;;10.15;73.60
55757;BME280;41676;44.610;44.078;2023-03-23T21:19:44;100165.00;;;10.44;73.24
55757;BME280;41676;44.610;44.078;2023-03-23T21:24:45;100219.34;;;10.65;73.64
55757;BME280;41676;44.610;44.078;2023-03-23T21:29:45;100213.28;;;10.56;73.91
55757;BME280;41676;44.610;44.078;2023-03-23T21:34:46;100186.44;;;10.18;74.42
55757;BME280;41676;44.610;44.078;2023-03-23T21:39:47;100166.41;;;9.75;75.58
55757;BME280;41676;44.610;44.078;2023-03-23T21:44:48;100218.16;;;9.71;76.58
55757;BME280;41676;44.610;44.078;2023-03-23T21:49:49;100168.91;;;9.27;76.69
55757;BME280;41676;44.610;44.078;2023-03-23T21:54:51;100125.28;;;8.97;77.16
55757;BME280;41676;44.610;44.078;2023-03-23T21:59:53;100180.34;;;9.36;76.92
55757;BME280;41676;44.610;44.078;2023-03-23T22:04:54;100144.53;;;9.07;77.13
55757;BME280;41676;44.610;44.078;2023-03-23T22:09:56;100175.34;;;9.17;77.29
55757;BME280;41676;44.610;44.078;2023-03-23T22:14:56;100169.69;;;9.03;77.90
55757;BME280;41676;44.610;44.078;2023-03-23T22:19:57;100170.97;;;8.91;78.45
55757;BME280;41676;44.610;44.078;2023-03-23T22:24:58;100173.63;;;8.83;78.79
55757;BME280;41676;44.610;44.078;2023-03-23T22:29:59;100156.66;;;8.59;78.59
55757;BME280;41676;44.610;44.078;2023-03-23T22:35:00;100149.84;;;8.57;78.94
55757;BME280;41676;44.610;44.078;2023-03-23T22:40:00;100174.38;;;8.59;79.09
55757;BME280;41676;44.610;44.078;2023-03-23T22:45:02;100149.75;;;8.40;79.57
55757;BME280;41676;44.610;44.078;2023-03-23T22:50:07;100180.28;;;8.53;80.98
55757;BME280;41676;44.610;44.078;2023-03-23T22:55:08;100150.66;;;8.23;80.54
55757;BME280;41676;44.610;44.078;2023-03-23T23:00:10;100201.31;;;8.54;80.77
55757;BME280;41676;44.610;44.078;2023-03-23T23:05:13;100200.03;;;8.66;81.34
55757;BME280;41676;44.610;44.078;2023-03-23T23:10:14;100121.78;;;7.77;80.55
55757;BME280;41676;44.610;44.078;2023-03-23T23:15:15;100180.50;;;8.07;81.28
55757;BME280;41676;44.610;44.078;2023-03-23T23:20:16;100013.06;;;7.02;81.93
55757;BME280;41676;44.610;44.078;2023-03-23T23:25:18;100145.94;;;7.83;82.49
55757;BME280;41676;44.610;44.078;2023-03-23T23:30:19;100128.56;;;7.54;82.73
55757;BME280;41676;44.610;44.078;2023-03-23T23:35:21;100201.38;;;7.92;83.08
55757;BME280;41676;44.610;44.078;2023-03-23T23:40:21;100100.59;;;7.25;82.76
55757;BME280;41676;44.610;44.078;2023-03-23T23:45:22;100061.66;;;6.92;83.01
55757;BME280;41676;44.610;44.078;2023-03-23T23:50:23;100118.66;;;7.12;83.09
55757;BME280;41676;44.610;44.078;2023-03-23T23:55:25;100192.06;;;7.44;83.68
